Dyce, United Kingdom
Current Conditions -  °F | °C
As of 5:50 AM on Thursday 27 Nov 2014 (Local Time) from EGPD Reporting Station
Drizzle Drizzle  
Wind Chill: 43°   Ceiling: 1800
Heat Index: 43°   Visibility: 2.8mi
Dew Point: 43°   Wind: 0mph
Humidity: 100%   Direction: NA
Pressure: 29.71"   Gusts: NA
Location:  57.25°N, 2.23°W
Report Text: EGPD 270550Z 00000KT 4500 -DZ FEW003 BKN018 06/06 Q1006 TEMPO 6000
Loading
Personal Weather Stations






























Interactive Weather Map New forecast layout! Learn more

10-Day Weather Forecast

Advertisements
Track Severe Weather on mobile